Coates, United Kingdom
Current Conditions -  °F | °C
As of 2:35 PM on Tuesday 21 Oct 2014 (Local Time) from EGVA Reporting Station
Scattered Clouds Scattered Clouds  
Wind Chill: 54°   Ceiling: Unl
Heat Index: 54°   Visibility: 6mi
Dew Point: 39°   Wind: 26mph
Humidity: 58%   Direction: 290°WNW
Pressure: 29.81"   Gusts: 38mph
Location:  51.71°N, 2.03°W
Report Text: EGVA 211335Z AUTO 29023G33KT 9999 SCT042 12/04 A2981 RMK AO2
Loading
Personal Weather Stations






























Interactive Weather Map New forecast layout! Learn more

10-Day Weather Forecast

Advertisements
Track Severe Weather on mobile